createdAt,value
2019-03-20T12:51:31.300Z,21728
2019-03-20T12:52:45.355Z,21280
2019-03-20T12:53:59.496Z,20608
2019-03-20T12:56:27.775Z,17792
2019-03-20T12:57:41.844Z,16268
2019-03-20T12:58:56.039Z,15492
2019-03-20T13:00:10.228Z,15172
2019-03-20T13:01:24.211Z,14860
2019-03-20T13:02:38.390Z,14468
2019-03-20T13:03:52.465Z,14024
2019-03-20T13:05:06.622Z,13376
2019-03-20T13:06:20.805Z,12884
2019-03-20T13:07:34.829Z,12508
2019-03-20T13:08:48.982Z,12216
2019-03-20T13:10:03.133Z,12016
2019-03-20T13:11:17.388Z,12124
2019-03-20T13:12:31.502Z,12432
2019-03-20T13:13:45.481Z,12692
2019-03-20T13:14:59.599Z,13012
2019-03-20T13:16:13.932Z,13312
2019-03-20T13:17:28.161Z,13360
2019-03-20T13:18:41.979Z,13496
2019-03-20T13:19:56.091Z,13736
2019-03-20T13:21:10.490Z,13748
2019-03-20T13:22:24.349Z,13856
2019-03-20T13:23:38.447Z,13836
2019-03-20T13:24:52.594Z,13864
2019-03-20T13:26:06.720Z,14044
2019-03-20T13:27:20.827Z,14368
2019-03-20T13:28:35.227Z,14888
2019-03-20T13:29:49.111Z,15292
2019-03-20T13:31:03.192Z,15500
2019-03-20T13:32:17.333Z,16096
2019-03-20T13:33:31.536Z,17140
2019-03-20T13:34:45.814Z,18400
2019-03-20T13:35:59.922Z,19520
2019-03-20T13:37:16.429Z,20160
2019-03-20T13:38:28.101Z,20416
2019-03-20T13:39:42.083Z,20640
2019-03-20T13:40:56.137Z,20992
2019-03-20T13:42:10.421Z,21312
2019-03-20T13:43:24.383Z,21280
2019-03-20T13:44:38.796Z,20704
2019-03-20T13:45:52.811Z,19808
2019-03-20T13:47:06.807Z,19232
2019-03-20T13:48:20.960Z,18976
2019-03-20T13:49:35.052Z,18784
2019-03-20T13:50:49.157Z,18496
2019-03-20T13:52:03.287Z,18176
2019-03-20T13:53:17.424Z,17824
2019-03-20T13:54:31.766Z,17440
2019-03-20T13:55:45.750Z,17108
2019-03-20T13:56:59.765Z,16864
2019-03-20T13:58:13.844Z,16312
2019-03-20T13:59:28.038Z,15516
2019-03-20T14:00:42.179Z,14768
2019-03-20T14:01:56.394Z,14192
2019-03-20T14:03:10.603Z,13764
2019-03-20T14:04:24.675Z,13472
2019-03-20T14:05:38.584Z,13448
2019-03-20T14:06:52.913Z,13512
2019-03-20T14:08:06.832Z,13596
2019-03-20T14:09:21.031Z,13756
2019-03-20T14:10:35.174Z,13684
2019-03-20T14:11:49.289Z,13408
2019-03-20T14:13:03.342Z,12960
2019-03-20T14:14:17.481Z,12364
2019-03-20T14:15:31.712Z,11820
2019-03-20T14:16:45.876Z,11588
2019-03-20T14:17:59.853Z,11540
2019-03-20T14:19:13.977Z,11460
2019-03-20T14:20:28.134Z,11200
2019-03-20T14:21:42.184Z,10920
2019-03-20T14:22:56.314Z,10572
2019-03-20T14:24:10.506Z,10132
2019-03-20T14:25:24.573Z,9732
2019-03-20T14:26:38.669Z,9220
2019-03-20T14:27:52.802Z,8632
2019-03-20T14:29:06.931Z,8300
2019-03-20T14:30:21.123Z,8124
2019-03-20T14:31:35.167Z,8024
2019-03-20T14:32:49.321Z,8028
2019-03-20T14:34:03.414Z,8012
2019-03-20T14:35:17.611Z,7940
2019-03-20T14:36:31.655Z,7852
2019-03-20T14:37:45.867Z,7812
2019-03-20T14:39:00.014Z,7880
2019-03-20T14:40:14.072Z,8072
2019-03-20T14:41:28.223Z,8080
2019-03-20T14:42:42.365Z,7924
2019-03-20T14:43:56.491Z,7872
2019-03-20T14:45:10.527Z,8016
2019-03-20T14:46:24.636Z,8100
2019-03-20T14:47:38.865Z,8064
2019-03-20T14:48:52.884Z,7976
2019-03-20T14:50:07.094Z,7908
2019-03-20T14:51:21.217Z,7948
2019-03-20T14:52:35.324Z,8284
2019-03-20T14:53:49.454Z,8796
2019-03-20T14:55:03.521Z,9756
2019-03-20T14:56:17.726Z,11288
2019-03-20T14:57:31.886Z,13216
2019-03-20T14:58:45.862Z,14712
2019-03-20T14:59:59.996Z,15056
2019-03-20T15:01:14.128Z,14528
2019-03-20T15:02:28.306Z,13796
2019-03-20T15:03:42.378Z,13096
2019-03-20T15:04:56.566Z,12732
2019-03-20T15:06:10.707Z,12512
2019-03-20T15:07:24.750Z,12240
2019-03-20T15:08:39.056Z,11840
2019-03-20T15:09:52.963Z,11420
2019-03-20T15:11:07.101Z,10796
2019-03-20T15:12:21.200Z,10388
2019-03-20T15:13:35.327Z,10352
2019-03-20T15:14:49.469Z,10484
2019-03-20T15:16:03.579Z,10796
2019-03-20T15:17:17.767Z,10992
2019-03-20T15:19:46.002Z,10708
2019-03-20T15:21:02.362Z,10356
2019-03-20T15:22:14.191Z,10320
2019-03-20T15:23:28.353Z,10628
2019-03-20T15:24:42.436Z,11092
2019-03-20T15:25:56.557Z,11496
2019-03-20T15:27:10.738Z,11776
2019-03-20T15:28:24.800Z,11928
2019-03-20T15:29:38.939Z,12068
2019-03-20T15:30:53.217Z,12112
2019-03-20T15:32:07.186Z,12124
2019-03-20T15:33:21.292Z,12120
2019-03-20T15:34:35.442Z,12132
2019-03-20T15:35:49.565Z,12152
2019-03-20T15:37:07.852Z,12176
2019-03-20T15:38:17.872Z,12112
2019-03-20T15:39:31.921Z,11896
2019-03-20T15:40:46.067Z,11484
2019-03-20T15:42:00.190Z,10948
2019-03-20T15:43:14.278Z,10492
2019-03-20T15:44:28.476Z,10332
2019-03-20T15:45:42.641Z,10220
2019-03-20T15:46:56.649Z,10220
2019-03-20T15:48:10.786Z,10148
2019-03-20T15:49:24.970Z,9956
2019-03-20T15:50:39.101Z,9688
2019-03-20T15:51:53.143Z,9468
2019-03-20T15:53:07.362Z,9324
2019-03-20T15:54:21.435Z,9188
2019-03-20T15:55:35.528Z,9008
2019-03-20T15:56:49.633Z,8848
2019-03-20T15:58:03.758Z,8764
2019-03-20T15:59:17.930Z,8728
2019-03-20T16:00:31.994Z,8696
2019-03-20T16:01:46.244Z,8628
2019-03-20T16:03:00.264Z,8552
2019-03-20T16:04:14.436Z,8480
2019-03-20T16:05:28.507Z,8492
2019-03-20T16:06:42.717Z,8560
2019-03-20T16:07:56.795Z,8604
2019-03-20T16:09:10.944Z,8620
2019-03-20T16:10:24.978Z,8620
2019-03-20T16:11:39.175Z,8584
2019-03-20T16:12:53.252Z,8516
2019-03-20T16:14:07.370Z,8404
2019-03-20T16:15:21.502Z,8228
2019-03-20T16:16:35.617Z,8000
2019-03-20T16:17:49.795Z,7764
2019-03-20T16:19:03.877Z,7560
2019-03-20T16:20:18.042Z,7416
2019-03-20T16:21:32.192Z,7292
2019-03-20T16:22:46.470Z,7148
2019-03-20T16:24:00.325Z,6948
2019-03-20T16:25:14.513Z,6564
2019-03-20T16:26:28.575Z,6144
2019-03-20T16:27:42.729Z,5732
2019-03-20T16:28:56.823Z,5360
2019-03-20T16:30:10.951Z,5080
2019-03-20T16:31:25.169Z,4868
2019-03-20T16:33:53.306Z,4696
2019-03-20T16:35:07.428Z,4720
2019-03-20T16:36:21.619Z,4732
2019-03-20T16:37:35.783Z,4768
2019-03-20T16:38:49.839Z,4744
2019-03-20T16:40:04.015Z,4664
2019-03-20T16:41:18.089Z,4588
2019-03-20T16:42:32.174Z,4460
2019-03-20T16:43:46.456Z,4264
2019-03-20T16:45:00.434Z,4108
2019-03-20T16:46:16.848Z,3968
2019-03-20T16:47:28.672Z,3744
2019-03-20T16:48:42.957Z,3508
2019-03-20T16:49:56.927Z,3364
2019-03-20T16:51:11.102Z,3236
2019-03-20T16:52:25.277Z,3096
2019-03-20T16:53:39.359Z,2888
2019-03-20T16:54:53.404Z,2700
2019-03-20T16:56:07.513Z,2520
2019-03-20T16:57:21.671Z,2368
2019-03-20T16:58:35.771Z,2252
2019-03-20T16:59:49.890Z,2140
2019-03-20T17:01:04.019Z,2056
2019-03-20T17:02:18.136Z,2004
2019-03-20T17:03:32.299Z,1944
2019-03-20T17:04:46.448Z,1884
2019-03-20T17:06:00.504Z,1832
2019-03-20T17:07:14.695Z,1788
2019-03-20T17:08:28.802Z,1764
2019-03-20T17:09:42.999Z,1732
2019-03-20T17:10:57.117Z,1692
2019-03-20T17:12:11.324Z,1624
2019-03-20T17:13:25.255Z,1560
2019-03-20T17:14:39.590Z,1508
2019-03-20T17:15:53.688Z,1440
2019-03-20T17:17:07.668Z,1372
2019-03-20T17:18:21.737Z,1312
2019-03-20T17:19:35.921Z,1252
2019-03-20T17:20:49.983Z,1204
2019-03-20T17:22:04.144Z,1152
2019-03-20T17:23:18.227Z,1096
2019-03-20T17:24:32.374Z,1044
2019-03-20T17:25:46.544Z,996
2019-03-20T17:27:00.593Z,948
2019-03-20T17:28:14.732Z,908
2019-03-20T17:29:28.933Z,856
2019-03-20T17:30:43.068Z,792
2019-03-20T17:31:57.123Z,728
2019-03-20T17:33:11.240Z,656
2019-03-20T17:34:25.566Z,584
2019-03-20T17:35:39.500Z,516
2019-03-20T17:36:53.786Z,452
2019-03-20T17:38:07.796Z,400
2019-03-20T17:39:21.899Z,360
2019-03-20T17:40:35.952Z,316
2019-03-20T17:41:50.158Z,292
2019-03-20T17:43:04.262Z,268
2019-03-20T17:45:32.501Z,212
2019-03-20T17:46:46.555Z,184
2019-03-20T17:48:00.680Z,156
2019-03-20T17:49:14.808Z,132
2019-03-20T17:50:28.919Z,116
2019-03-20T17:51:43.151Z,100
2019-03-20T17:52:57.197Z,84
2019-03-20T17:54:11.303Z,72
2019-03-20T17:55:25.420Z,56
2019-03-20T17:57:53.766Z,40
2019-03-20T17:59:07.852Z,32
2019-03-20T18:00:21.969Z,24
2019-03-20T18:01:36.030Z,24
2019-03-20T18:02:50.151Z,16
2019-03-20T18:04:04.293Z,12
2019-03-20T18:05:18.438Z,12
2019-03-20T18:06:32.733Z,12
2019-03-20T18:07:46.660Z,8
2019-03-20T18:09:00.784Z,8
2019-03-20T18:10:17.237Z,4
2019-03-20T18:11:29.274Z,4
2019-03-20T18:12:43.345Z,4
2019-03-20T18:13:57.305Z,4
2019-03-20T18:15:11.479Z,4
2019-03-20T18:17:39.695Z,0
2019-03-20T18:18:53.764Z,0
2019-03-20T18:20:11.995Z,0
2019-03-20T18:21:22.070Z,0
2019-03-20T18:22:36.377Z,0
2019-03-20T18:25:04.693Z,0
2019-03-20T18:26:18.480Z,0
2019-03-20T18:27:32.685Z,0
2019-03-20T18:28:46.806Z,0
2019-03-20T18:30:00.866Z,0
2019-03-20T18:32:29.342Z,0
2019-03-20T18:33:43.269Z,0
2019-03-20T18:34:57.572Z,0
2019-03-20T18:36:11.581Z,0
2019-03-20T18:37:25.606Z,0
2019-03-20T18:39:53.865Z,0
2019-03-20T18:41:07.995Z,0
2019-03-20T18:42:22.204Z,0
2019-03-20T18:43:36.233Z,0
2019-03-20T18:44:50.333Z,0
2019-03-20T18:47:18.586Z,0
2019-03-20T18:48:32.699Z,0
2019-03-20T18:49:46.908Z,0
2019-03-20T18:52:15.256Z,0
2019-03-20T18:54:43.332Z,0
2019-03-20T18:55:57.440Z,0
2019-03-20T18:57:11.634Z,0
2019-03-20T18:58:25.745Z,0
2019-03-20T18:59:39.822Z,0
2019-03-20T19:02:08.101Z,0
2019-03-20T19:03:22.291Z,0
2019-03-20T19:04:36.296Z,0
2019-03-20T19:05:50.513Z,0
2019-03-20T19:07:04.917Z,0
2019-03-20T19:09:32.818Z,0
2019-03-20T19:10:46.915Z,0
2019-03-20T19:12:01.038Z,0
2019-03-20T19:13:15.205Z,0
2019-03-20T19:14:29.293Z,0
2019-03-20T19:16:57.647Z,0
2019-03-20T19:18:11.645Z,0
2019-03-20T19:19:25.792Z,0
2019-03-20T19:20:43.296Z,0
2019-03-20T19:21:57.438Z,0
2019-03-20T19:24:22.269Z,0
2019-03-20T19:25:36.415Z,0
2019-03-20T19:26:50.564Z,0
2019-03-20T19:28:04.766Z,0
2019-03-20T19:29:18.835Z,0
2019-03-20T19:31:47.049Z,0
2019-03-20T19:33:01.204Z,0
2019-03-20T19:34:15.253Z,0
2019-03-20T19:35:29.382Z,0
2019-03-20T19:36:43.496Z,0
2019-03-20T19:39:11.761Z,0
2019-03-20T19:40:25.912Z,0
2019-03-20T19:41:40.014Z,0
2019-03-20T19:42:54.191Z,0
2019-03-20T19:44:08.229Z,0
2019-03-20T19:46:36.478Z,0
2019-03-20T19:47:50.604Z,0
2019-03-20T19:49:04.731Z,0
2019-03-20T19:50:18.848Z,0
2019-03-20T19:51:32.982Z,0
2019-03-20T19:54:01.330Z,0
2019-03-20T19:55:15.356Z,0
2019-03-20T19:56:29.532Z,0
2019-03-20T19:57:43.629Z,0
2019-03-20T19:58:57.769Z,0
2019-03-20T20:01:28.139Z,0
2019-03-20T20:02:40.224Z,0
2019-03-20T20:03:54.298Z,0
2019-03-20T20:05:08.437Z,0
2019-03-20T20:06:22.436Z,0
2019-03-20T20:08:50.696Z,0
2019-03-20T20:10:04.928Z,0
2019-03-20T20:11:19.010Z,0
2019-03-20T20:12:33.058Z,0
2019-03-20T20:13:47.192Z,0
2019-03-20T20:16:15.431Z,0
2019-03-20T20:17:29.562Z,0
2019-03-20T20:18:43.761Z,0
2019-03-20T20:19:57.800Z,0
2019-03-20T20:21:11.941Z,0
2019-03-20T20:22:26.243Z,0
2019-03-20T20:23:40.170Z,0
2019-03-20T20:24:54.379Z,0
2019-03-20T20:26:08.512Z,0
2019-03-20T20:27:22.540Z,0
2019-03-20T20:28:36.752Z,0
2019-03-20T20:29:50.818Z,0
2019-03-20T20:31:04.940Z,0
2019-03-20T20:32:19.099Z,0
2019-03-20T20:33:33.291Z,0
2019-03-20T20:34:47.508Z,0
2019-03-20T20:36:01.417Z,0
2019-03-20T20:38:29.713Z,0
2019-03-20T20:39:43.873Z,0
2019-03-20T20:40:57.901Z,0
2019-03-20T20:42:12.121Z,0
2019-03-20T20:43:26.142Z,0
2019-03-20T20:45:54.460Z,0
2019-03-20T20:47:08.525Z,0
2019-03-20T20:48:22.706Z,0
2019-03-20T20:49:36.826Z,0
2019-03-20T20:50:50.874Z,0
2019-03-20T20:53:19.137Z,0
2019-03-20T20:54:34.283Z,0
2019-03-20T20:55:47.573Z,0
2019-03-20T20:58:15.710Z,0
2019-03-20T20:59:29.747Z,0
2019-03-20T21:00:43.952Z,0
2019-03-20T21:01:57.976Z,0
2019-03-20T21:03:12.142Z,0
2019-03-20T21:04:28.805Z,0
2019-03-20T21:05:40.382Z,0
2019-03-20T21:06:54.563Z,0
2019-03-20T21:08:08.599Z,0
2019-03-20T21:09:22.720Z,0
2019-03-20T21:10:36.877Z,0
2019-03-20T21:11:51.138Z,0
2019-03-20T21:13:05.078Z,0
2019-03-20T21:15:33.331Z,0
2019-03-20T21:16:47.594Z,0
2019-03-20T21:18:01.619Z,0
2019-03-20T21:19:15.787Z,0
2019-03-20T21:20:29.922Z,0
2019-03-20T21:22:58.117Z,0
2019-03-20T21:24:12.263Z,0
2019-03-20T21:25:29.874Z,0
2019-03-20T21:26:40.504Z,0
2019-03-20T21:27:54.682Z,0
2019-03-20T21:30:22.813Z,0
2019-03-20T21:31:37.003Z,0
2019-03-20T21:32:51.112Z,0
2019-03-20T21:34:05.181Z,0
2019-03-20T21:35:19.304Z,0
2019-03-20T21:37:47.556Z,0
2019-03-20T21:39:01.682Z,0
2019-03-20T21:40:15.939Z,0
2019-03-20T21:41:29.913Z,0
2019-03-20T21:42:44.053Z,0
2019-03-20T21:45:12.285Z,0
2019-03-20T21:46:26.567Z,0
2019-03-20T21:47:40.618Z,0
2019-03-20T21:50:08.774Z,0
2019-03-20T21:52:37.018Z,0
2019-03-20T21:53:51.158Z,0
2019-03-20T21:55:05.317Z,0
2019-03-20T21:56:19.387Z,0
2019-03-20T21:57:33.588Z,0
2019-03-20T22:00:01.770Z,0
2019-03-20T22:01:15.889Z,0
2019-03-20T22:02:30.006Z,0
2019-03-20T22:03:44.151Z,0
2019-03-20T22:04:58.273Z,0
2019-03-20T22:06:12.383Z,0
2019-03-20T22:08:40.710Z,0
2019-03-20T22:09:54.738Z,0
2019-03-20T22:11:08.874Z,0
2019-03-20T22:12:23.128Z,0
2019-03-20T22:13:37.117Z,0
2019-03-20T22:14:51.253Z,0
2019-03-20T22:16:05.371Z,0
2019-03-20T22:17:19.482Z,0
2019-03-20T22:18:33.612Z,0
2019-03-20T22:19:47.735Z,0
2019-03-20T22:21:01.969Z,0
2019-03-20T22:22:15.987Z,0
2019-03-20T22:23:30.129Z,0
2019-03-20T22:24:44.230Z,0
2019-03-20T22:25:58.450Z,0
2019-03-20T22:27:12.475Z,0
2019-03-20T22:29:40.791Z,0
2019-03-20T22:30:54.870Z,0
2019-03-20T22:32:08.945Z,0
2019-03-20T22:33:23.070Z,0
2019-03-20T22:34:37.227Z,0
2019-03-20T22:35:51.333Z,0
2019-03-20T22:37:05.571Z,0
2019-03-20T22:38:19.555Z,0
2019-03-20T22:39:33.675Z,0
2019-03-20T22:40:47.800Z,0
2019-03-20T22:42:01.993Z,0
2019-03-20T22:44:30.192Z,0
2019-03-20T22:45:44.281Z,0
2019-03-20T22:46:58.405Z,0
2019-03-20T22:48:12.565Z,0
2019-03-20T22:49:26.639Z,0
2019-03-20T22:51:54.965Z,0
2019-03-20T22:53:10.664Z,0
2019-03-20T22:54:23.123Z,0
2019-03-20T22:55:37.247Z,0
2019-03-20T22:56:51.463Z,0
2019-03-20T22:59:19.800Z,0
2019-03-20T23:00:33.731Z,0
2019-03-20T23:01:47.928Z,0
2019-03-20T23:03:01.998Z,0
2019-03-20T23:04:16.167Z,0
2019-03-20T23:06:44.405Z,0
2019-03-20T23:07:58.490Z,0
2019-03-20T23:09:12.658Z,0
2019-03-20T23:11:40.903Z,0
2019-03-20T23:14:09.192Z,0
2019-03-20T23:15:23.348Z,0
2019-03-20T23:16:37.437Z,0
2019-03-20T23:17:51.418Z,0
2019-03-20T23:19:05.656Z,0
2019-03-20T23:21:33.841Z,0
2019-03-20T23:22:47.964Z,0
2019-03-20T23:24:02.036Z,0
2019-03-20T23:25:16.230Z,0
2019-03-20T23:26:30.335Z,0
2019-03-20T23:28:58.515Z,0
2019-03-20T23:30:12.653Z,0
2019-03-20T23:31:26.767Z,0
2019-03-20T23:32:40.881Z,0
2019-03-20T23:33:55.047Z,0
2019-03-20T23:36:23.239Z,0
2019-03-20T23:37:37.364Z,0
2019-03-20T23:38:51.549Z,0
2019-03-20T23:40:05.636Z,0
2019-03-20T23:41:19.870Z,0
2019-03-20T23:43:48.047Z,0
2019-03-20T23:45:02.188Z,0
2019-03-20T23:46:16.249Z,0
2019-03-20T23:47:30.444Z,0
2019-03-20T23:48:44.457Z,0
2019-03-20T23:51:12.697Z,0
2019-03-20T23:52:26.812Z,0
2019-03-20T23:53:40.971Z,0
2019-03-20T23:54:55.064Z,0
2019-03-20T23:56:09.188Z,0
2019-03-20T23:58:37.418Z,0
2019-03-20T23:59:51.541Z,0
